Bandon, OR

7:58 AM PDT on August 21, 2014 (GMT -0700)
Roseburg Regional | Change Station
CLOSE
Current Station
Airport
Location: Roseburg,
Elevation: 525 ft
Nearby Weather Stations

Elev 525 ft 43.24 °N, 123.36 °W | Updated 5 minutes ago

Clear
Clear
57 °F
Feels Like 57 °F
N
0
Wind Variable Wind from North

Today
High -- | Low -- °F
--% Chance of Precip.
Yesterday
High -- | Low -- °F
Precip. -- in
6:30 AM 8:10 PM
Waning Crescent, 14% visible
Pressure 30.05 in
Visibility 10.0 miles
Clouds Clear
Dew Point 50 °F
Humidity 77%
Rainfall 0.00 in
Snow Depth Not available.
UV 1 out of 12
Pollen 2.90 out of 12
Air Quality Not available.
Flu Activity Not available.
METAR KRBG 211453Z AUTO 00000KT 10SM CLR 14/10 A3005 RMK AO2 SLP175 T01390100 53007

More Conditions Fewer Conditions

Pressure 30.05 in
Visibility 10.0 miles
Clouds Clear
Dew Point 50 °F
Humidity 77%
Rainfall 0.00 in
Snow Depth Not available.
UV 1 out of 12
Pollen 2.90 out of 12
Air Quality Not available.
Flu Activity Not available.
METAR KRBG 211453Z AUTO 00000KT 10SM CLR 14/10 A3005 RMK AO2 SLP175 T01390100 53007

More Conditions Fewer Conditions

10-Day Weather Forecast

Almanac

Astronomy

Aug. 21, 2014 Rise Set
Actual Time 6:30 AM PDT 8:10 PM PDT
Civil Twilight 5:59 AM PDT 8:40 PM PDT
Nautical Twilight 5:23 AM PDT 9:17 PM PDT
Astronomical Twilight 4:43 AM PDT 9:56 PM PDT
Moon 3:02 AM PDT 5:45 PM PDT
Length of Visible Light 14h 40m
Length of Day
13h 40m
Tomorrow will be 2m 42s shorter.
Waning Crescent, 14% of the Moon is Illuminated
Today
Waning Crescent
Aug 25
New
Sep 2
First Quarter
Sep 8
Full
Sep 15
Last Quarter

Today's Extremes

State Highs State Lows

Community

WunderPhotos

Upload Photos

1,745,930 photos uploaded!

Nearby

Snow Depth

Station Depth Elevation
Bigelow Camp 0 in 5120 ft
Holland Meadows 1 in 4900 ft
Big Red Mountain 0 in 6250 ft
Fish Lake 0 in 4665 ft
Annie Springs 0 in 6020 ft

Earthquake Activity

City Distance Mag. Time & Date
Crescent City, California 145 miles 2.8 2:15 PM PDT
2014-08-15
Minimum magnitude displayed is 2.5.

Coastal Water Temperatures

Place Temperature
Port Orford, OR 48.9 °F
Charleston, OR 57.9 °F
South Beach, OR 57.0 °F

Nearby Weather Stations